Airfield :
LOGIN :

Register | Disclaimer

   EN    FR    IT 

 










Legend :    VFR   Marginal VFR   IFR   Intensive IFR   Very Intensive IFR
Visi :
Ceiling :
>= 8 km
>= 3000ft
5 to 8 km
1000 to 3000 ft
1500m to 5 km
500 to 1000 ft
800 to 1500m
200 to 500 ft
< 800m
< 200 ft
Symbols :   Thunderstorms  Fog  Heavy snow  Heavy precipitations  Wind > 20 kt
SIGMETs :     Misc.  Thunderstorms  Icing  Turbulence  Mountain Waves  Volcanic Ashes






- Airport Elevation : 915 ft
- IATA code : LUG


LSZA - Lugano

CURRENT METAR :
  • 182220Z AUTO VRB01KT CAVOK 23/21 Q1019

EXPIRED METARs :
  • 182150Z AUTO 00000KT CAVOK 23/20 Q1018
  • 182120Z AUTO VRB01KT CAVOK 24/20 Q1018
  • 182050Z AUTO VRB02KT CAVOK 24/20 Q1018
  • 182020Z AUTO VRB02KT CAVOK 24/20 Q1018
  • 181950Z AUTO VRB02KT 6000 NCD 26/20 Q1018
  • 181920Z AUTO 35004KT CAVOK 25/22 Q1018
  • 181850Z AUTO 01003KT CAVOK 27/22 Q1018
  • 181820Z AUTO VRB01KT CAVOK 28/22 Q1018
  • 181750Z VRB03KT 9999 FEW060 30/23 Q1017

TAF TAF LSZA
Valid from the 18 at 15:00 until the 19 at 00:00 UTC


181425Z 1815/1824 19005KT 9999 SCT060
PROB40
TEMPO 1815/1817 FEW060TCU
BECMG 1816/1819 CAVOK
ATIS : +41 22 417 40 88



MET'MAP, your aeronautical weather chart ! - Copyright ORBIFLY December 2007 - Disclaimer

ORBIFLY MET'MAP TEAM :

Programming & Development : Alexandra Zaïnal
Original concept : Baudouin d'Aumeries
Technical & hardware support : Manuel Goepfert
Assistance : Marc-Olivier Méhu




SOURCES & CREDITS :

   NOAA